sensor_id;sensor_type;location;lat;lon;timestamp;pressure;altitude;pressure_sealevel;temperature;humidity
71791;BME280;59638;52.126;5.434;2023-04-28T00:01:11;101551.38;;;8.43;64.79
71791;BME280;59638;52.126;5.434;2023-04-28T00:03:37;101551.59;;;8.40;64.82
71791;BME280;59638;52.126;5.434;2023-04-28T00:06:04;101552.44;;;8.41;64.54
71791;BME280;59638;52.126;5.434;2023-04-28T00:08:31;101553.47;;;8.38;65.24
71791;BME280;59638;52.126;5.434;2023-04-28T00:10:58;101562.31;;;8.37;64.75
71791;BME280;59638;52.126;5.434;2023-04-28T00:13:24;101549.91;;;8.39;65.17
71791;BME280;59638;52.126;5.434;2023-04-28T00:15:51;101543.91;;;8.37;65.20
71791;BME280;59638;52.126;5.434;2023-04-28T00:18:20;101530.94;;;8.34;64.74
71791;BME280;59638;52.126;5.434;2023-04-28T00:20:47;101539.59;;;8.36;64.91
71791;BME280;59638;52.126;5.434;2023-04-28T00:23:14;101536.19;;;8.34;65.36
71791;BME280;59638;52.126;5.434;2023-04-28T00:25:41;101523.16;;;8.33;64.84
71791;BME280;59638;52.126;5.434;2023-04-28T00:28:07;101508.22;;;8.33;64.69
71791;BME280;59638;52.126;5.434;2023-04-28T00:30:34;101506.44;;;8.34;65.44
71791;BME280;59638;52.126;5.434;2023-04-28T00:33:00;101509.91;;;8.34;64.93
71791;BME280;59638;52.126;5.434;2023-04-28T00:35:26;101495.91;;;8.34;65.43
71791;BME280;59638;52.126;5.434;2023-04-28T00:37:53;101494.13;;;8.34;65.47
71791;BME280;59638;52.126;5.434;2023-04-28T00:40:19;101484.44;;;8.35;65.69
71791;BME280;59638;52.126;5.434;2023-04-28T00:42:46;101490.56;;;8.35;65.47
71791;BME280;59638;52.126;5.434;2023-04-28T00:45:12;101503.78;;;8.34;66.03
71791;BME280;59638;52.126;5.434;2023-04-28T00:47:40;101501.47;;;8.29;65.84
71791;BME280;59638;52.126;5.434;2023-04-28T00:50:07;101499.81;;;8.28;65.96
71791;BME280;59638;52.126;5.434;2023-04-28T00:52:37;101495.59;;;8.26;66.89
71791;BME280;59638;52.126;5.434;2023-04-28T00:55:04;101494.97;;;8.22;66.33
71791;BME280;59638;52.126;5.434;2023-04-28T00:57:30;101489.72;;;8.22;66.30
71791;BME280;59638;52.126;5.434;2023-04-28T00:59:57;101485.28;;;8.23;65.51
71791;BME280;59638;52.126;5.434;2023-04-28T01:02:24;101487.81;;;8.24;65.78
71791;BME280;59638;52.126;5.434;2023-04-28T01:04:52;101473.69;;;8.25;66.06
71791;BME280;59638;52.126;5.434;2023-04-28T01:07:19;101477.28;;;8.24;65.88
71791;BME280;59638;52.126;5.434;2023-04-28T01:09:46;101471.06;;;8.25;66.64
71791;BME280;59638;52.126;5.434;2023-04-28T01:12:13;101472.03;;;8.24;66.47
71791;BME280;59638;52.126;5.434;2023-04-28T01:14:39;101466.75;;;8.24;65.57
71791;BME280;59638;52.126;5.434;2023-04-28T01:17:07;101469.38;;;8.24;66.14
71791;BME280;59638;52.126;5.434;2023-04-28T01:19:33;101474.66;;;8.24;66.78
71791;BME280;59638;52.126;5.434;2023-04-28T01:22:00;101466.03;;;8.22;66.89
71791;BME280;59638;52.126;5.434;2023-04-28T01:24:26;101459.22;;;8.20;66.35
71791;BME280;59638;52.126;5.434;2023-04-28T01:26:53;101458.38;;;8.19;66.91
71791;BME280;59638;52.126;5.434;2023-04-28T01:29:19;101460.06;;;8.20;66.99
71791;BME280;59638;52.126;5.434;2023-04-28T01:31:45;101460.06;;;8.20;67.50
71791;BME280;59638;52.126;5.434;2023-04-28T01:34:12;101450.47;;;8.19;67.43
71791;BME280;59638;52.126;5.434;2023-04-28T01:36:39;101457.50;;;8.18;68.30
71791;BME280;59638;52.126;5.434;2023-04-28T01:39:05;101449.63;;;8.18;67.48
71791;BME280;59638;52.126;5.434;2023-04-28T01:41:32;101446.97;;;8.18;68.00
71791;BME280;59638;52.126;5.434;2023-04-28T01:44:01;101440.88;;;8.18;67.88
71791;BME280;59638;52.126;5.434;2023-04-28T01:46:29;101436.56;;;8.17;67.60
71791;BME280;59638;52.126;5.434;2023-04-28T01:48:55;101431.31;;;8.17;67.48
71791;BME280;59638;52.126;5.434;2023-04-28T01:51:21;101425.34;;;8.15;67.16
71791;BME280;59638;52.126;5.434;2023-04-28T01:53:48;101418.41;;;8.14;68.03
71791;BME280;59638;52.126;5.434;2023-04-28T01:56:14;101416.72;;;8.13;67.17
71791;BME280;59638;52.126;5.434;2023-04-28T01:58:41;101420.38;;;8.10;67.23
71791;BME280;59638;52.126;5.434;2023-04-28T02:01:07;101428.41;;;8.09;67.29
71791;BME280;59638;52.126;5.434;2023-04-28T02:03:34;101426.59;;;8.09;67.23
71791;BME280;59638;52.126;5.434;2023-04-28T02:06:00;101413.56;;;8.08;67.31
71791;BME280;59638;52.126;5.434;2023-04-28T02:08:27;101413.56;;;8.08;67.45
71791;BME280;59638;52.126;5.434;2023-04-28T02:10:53;101416.09;;;8.09;67.39
71791;BME280;59638;52.126;5.434;2023-04-28T02:13:19;101410.81;;;8.09;68.30
71791;BME280;59638;52.126;5.434;2023-04-28T02:15:46;101416.09;;;8.09;67.94
71791;BME280;59638;52.126;5.434;2023-04-28T02:18:12;101414.28;;;8.10;67.69
71791;BME280;59638;52.126;5.434;2023-04-28T02:20:39;101410.00;;;8.09;67.68
71791;BME280;59638;52.126;5.434;2023-04-28T02:23:06;101405.69;;;8.08;66.97
71791;BME280;59638;52.126;5.434;2023-04-28T02:25:32;101399.47;;;8.09;68.27
71791;BME280;59638;52.126;5.434;2023-04-28T02:27:58;101396.84;;;8.09;67.58
71791;BME280;59638;52.126;5.434;2023-04-28T02:30:25;101396.97;;;8.07;67.16
71791;BME280;59638;52.126;5.434;2023-04-28T02:32:51;101391.69;;;8.07;67.99
71791;BME280;59638;52.126;5.434;2023-04-28T02:35:18;101376.75;;;8.08;68.22
71791;BME280;59638;52.126;5.434;2023-04-28T02:37:44;101380.34;;;8.07;68.24
71791;BME280;59638;52.126;5.434;2023-04-28T02:40:12;101387.28;;;8.08;67.91
71791;BME280;59638;52.126;5.434;2023-04-28T02:42:38;101374.13;;;8.08;68.46
71791;BME280;59638;52.126;5.434;2023-04-28T02:45:05;101371.50;;;8.08;68.69
71791;BME280;59638;52.126;5.434;2023-04-28T02:47:31;101374.13;;;8.08;68.09
71791;BME280;59638;52.126;5.434;2023-04-28T02:49:58;101370.56;;;8.09;68.80
71791;BME280;59638;52.126;5.434;2023-04-28T02:52:24;101357.41;;;8.09;68.12
71791;BME280;59638;52.126;5.434;2023-04-28T02:54:50;101362.78;;;8.07;67.46
71791;BME280;59638;52.126;5.434;2023-04-28T02:57:19;101351.41;;;8.07;68.19
71791;BME280;59638;52.126;5.434;2023-04-28T02:59:46;101345.41;;;8.05;67.69
71791;BME280;59638;52.126;5.434;2023-04-28T03:02:12;101339.31;;;8.04;67.35
71791;BME280;59638;52.126;5.434;2023-04-28T03:04:39;101335.00;;;8.03;67.92
71791;BME280;59638;52.126;5.434;2023-04-28T03:07:06;101334.28;;;8.01;68.10
71791;BME280;59638;52.126;5.434;2023-04-28T03:09:32;101336.19;;;7.99;67.97
71791;BME280;59638;52.126;5.434;2023-04-28T03:11:59;101328.41;;;7.98;67.97
71791;BME280;59638;52.126;5.434;2023-04-28T03:14:25;101328.41;;;7.98;68.79
71791;BME280;59638;52.126;5.434;2023-04-28T03:16:52;101323.13;;;7.98;69.13
71791;BME280;59638;52.126;5.434;2023-04-28T03:19:18;101324.81;;;7.99;68.67
71791;BME280;59638;52.126;5.434;2023-04-28T03:21:44;101319.56;;;7.99;68.28
71791;BME280;59638;52.126;5.434;2023-04-28T03:24:11;101314.31;;;7.99;68.77
71791;BME280;59638;52.126;5.434;2023-04-28T03:26:37;101313.47;;;7.98;68.97
71791;BME280;59638;52.126;5.434;2023-04-28T03:29:04;101320.41;;;7.99;68.62
71791;BME280;59638;52.126;5.434;2023-04-28T03:31:30;101318.63;;;8.00;68.60
71791;BME280;59638;52.126;5.434;2023-04-28T03:33:56;101310.75;;;8.00;68.96
71791;BME280;59638;52.126;5.434;2023-04-28T03:36:24;101302.03;;;7.99;68.90
71791;BME280;59638;52.126;5.434;2023-04-28T03:38:52;101297.81;;;7.97;68.44
71791;BME280;59638;52.126;5.434;2023-04-28T03:41:19;101288.25;;;7.96;68.67
71791;BME280;59638;52.126;5.434;2023-04-28T03:43:45;101286.56;;;7.95;69.11
71791;BME280;59638;52.126;5.434;2023-04-28T03:46:11;101289.09;;;7.96;68.98
71791;BME280;59638;52.126;5.434;2023-04-28T03:48:38;101286.56;;;7.95;69.28
71791;BME280;59638;52.126;5.434;2023-04-28T03:51:04;101283.00;;;7.96;69.38
71791;BME280;59638;52.126;5.434;2023-04-28T03:53:30;101288.25;;;7.96;70.01
71791;BME280;59638;52.126;5.434;2023-04-28T03:55:57;101291.00;;;7.94;70.60
71791;BME280;59638;52.126;5.434;2023-04-28T03:58:23;101295.41;;;7.94;69.25
71791;BME280;59638;52.126;5.434;2023-04-28T04:00:50;101292.88;;;7.92;69.67
71791;BME280;59638;52.126;5.434;2023-04-28T04:03:16;101285.94;;;7.91;70.35
71791;BME280;59638;52.126;5.434;2023-04-28T04:05:43;101281.50;;;7.91;70.36
71791;BME280;59638;52.126;5.434;2023-04-28T04:08:09;101272.72;;;7.93;71.26
71791;BME280;59638;52.126;5.434;2023-04-28T04:10:36;101264.81;;;7.93;71.80
71791;BME280;59638;52.126;5.434;2023-04-28T04:13:02;101264.69;;;7.94;70.58
71791;BME280;59638;52.126;5.434;2023-04-28T04:15:29;101261.13;;;7.95;70.97
71791;BME280;59638;52.126;5.434;2023-04-28T04:17:55;101266.25;;;7.97;71.32
71791;BME280;59638;52.126;5.434;2023-04-28T04:20:22;101259.31;;;7.96;71.18
71791;BME280;59638;52.126;5.434;2023-04-28T04:22:48;101250.50;;;7.97;72.03
71791;BME280;59638;52.126;5.434;2023-04-28T04:25:14;101252.16;;;7.98;71.92
71791;BME280;59638;52.126;5.434;2023-04-28T04:27:41;101257.34;;;7.99;71.98
71791;BME280;59638;52.126;5.434;2023-04-28T04:30:08;101252.91;;;8.00;72.23
71791;BME280;59638;52.126;5.434;2023-04-28T04:32:34;101250.28;;;8.00;72.52
71791;BME280;59638;52.126;5.434;2023-04-28T04:35:01;101251.22;;;7.99;72.65
71791;BME280;59638;52.126;5.434;2023-04-28T04:37:27;101245.84;;;8.00;72.65
71791;BME280;59638;52.126;5.434;2023-04-28T04:39:54;101238.56;;;8.04;73.24
71791;BME280;59638;52.126;5.434;2023-04-28T04:42:20;101238.38;;;8.07;73.58
71791;BME280;59638;52.126;5.434;2023-04-28T04:44:51;101226.91;;;8.08;72.90
71791;BME280;59638;52.126;5.434;2023-04-28T04:47:17;101224.97;;;8.10;73.60
71791;BME280;59638;52.126;5.434;2023-04-28T04:49:44;101223.06;;;8.12;73.65
71791;BME280;59638;52.126;5.434;2023-04-28T04:52:10;101227.41;;;8.13;73.40
71791;BME280;59638;52.126;5.434;2023-04-28T04:54:37;101221.19;;;8.14;72.88
71791;BME280;59638;52.126;5.434;2023-04-28T04:57:03;101226.22;;;8.17;73.05
71791;BME280;59638;52.126;5.434;2023-04-28T04:59:29;101219.06;;;8.19;73.91
71791;BME280;59638;52.126;5.434;2023-04-28T05:01:56;101226.97;;;8.19;74.22
71791;BME280;59638;52.126;5.434;2023-04-28T05:04:22;101213.56;;;8.22;73.90
71791;BME280;59638;52.126;5.434;2023-04-28T05:06:49;101212.41;;;8.26;73.60
71791;BME280;59638;52.126;5.434;2023-04-28T05:09:16;101210.50;;;8.28;73.47
71791;BME280;59638;52.126;5.434;2023-04-28T05:11:43;101210.25;;;8.31;74.05
71791;BME280;59638;52.126;5.434;2023-04-28T05:14:09;101216.13;;;8.35;73.96
71791;BME280;59638;52.126;5.434;2023-04-28T05:16:36;101223.94;;;8.36;73.00
71791;BME280;59638;52.126;5.434;2023-04-28T05:19:03;101219.50;;;8.37;73.80
71791;BME280;59638;52.126;5.434;2023-04-28T05:21:29;101211.50;;;8.38;74.03
71791;BME280;59638;52.126;5.434;2023-04-28T05:23:56;101209.59;;;8.40;73.67
71791;BME280;59638;52.126;5.434;2023-04-28T05:26:22;101209.38;;;8.43;74.19
71791;BME280;59638;52.126;5.434;2023-04-28T05:28:49;101219.69;;;8.47;74.17
71791;BME280;59638;52.126;5.434;2023-04-28T05:31:15;101214.41;;;8.47;73.73
71791;BME280;59638;52.126;5.434;2023-04-28T05:33:42;101214.50;;;8.45;73.35
71791;BME280;59638;52.126;5.434;2023-04-28T05:36:08;101219.69;;;8.47;73.53
71791;BME280;59638;52.126;5.434;2023-04-28T05:38:35;101212.50;;;8.49;74.93
71791;BME280;59638;52.126;5.434;2023-04-28T05:41:01;101226.81;;;8.44;75.11
71791;BME280;59638;52.126;5.434;2023-04-28T05:43:28;101231.63;;;8.39;76.60
71791;BME280;59638;52.126;5.434;2023-04-28T05:45:54;101227.28;;;8.38;79.89
71791;BME280;59638;52.126;5.434;2023-04-28T05:48:20;101222.88;;;8.39;82.24
71791;BME280;59638;52.126;5.434;2023-04-28T05:50:47;101216.19;;;8.22;82.40
71791;BME280;59638;52.126;5.434;2023-04-28T05:53:13;101210.16;;;8.09;82.47
71791;BME280;59638;52.126;5.434;2023-04-28T05:55:40;101215.28;;;7.99;83.48
71791;BME280;59638;52.126;5.434;2023-04-28T05:58:06;101215.59;;;7.95;84.00
71791;BME280;59638;52.126;5.434;2023-04-28T06:00:33;101213.41;;;7.88;86.14
71791;BME280;59638;52.126;5.434;2023-04-28T06:03:00;101223.25;;;7.98;87.71
71791;BME280;59638;52.126;5.434;2023-04-28T06:05:26;101226.63;;;8.00;89.36
71791;BME280;59638;52.126;5.434;2023-04-28T06:07:53;101226.38;;;8.03;90.41
71791;BME280;59638;52.126;5.434;2023-04-28T06:10:25;101229.78;;;7.92;90.47
71791;BME280;59638;52.126;5.434;2023-04-28T06:12:51;101222.00;;;7.90;91.74
71791;BME280;59638;52.126;5.434;2023-04-28T06:15:18;101225.16;;;7.96;92.18
71791;BME280;59638;52.126;5.434;2023-04-28T06:17:44;101205.16;;;8.06;93.13
71791;BME280;59638;52.126;5.434;2023-04-28T06:20:11;101204.97;;;8.20;93.06
71791;BME280;59638;52.126;5.434;2023-04-28T06:22:39;101199.50;;;8.34;93.94
71791;BME280;59638;52.126;5.434;2023-04-28T06:25:07;101186.19;;;8.49;93.52
71791;BME280;59638;52.126;5.434;2023-04-28T06:27:33;101186.94;;;8.62;93.00
71791;BME280;59638;52.126;5.434;2023-04-28T06:30:00;101186.47;;;8.68;91.11
71791;BME280;59638;52.126;5.434;2023-04-28T06:32:26;101189.13;;;8.79;92.09
71791;BME280;59638;52.126;5.434;2023-04-28T06:34:52;101194.88;;;8.95;91.78
71791;BME280;59638;52.126;5.434;2023-04-28T06:37:19;101182.31;;;8.99;90.73
71791;BME280;59638;52.126;5.434;2023-04-28T06:39:45;101189.63;;;9.07;90.71
71791;BME280;59638;52.126;5.434;2023-04-28T06:42:12;101186.03;;;9.08;90.72
71791;BME280;59638;52.126;5.434;2023-04-28T06:44:38;101183.16;;;9.11;91.45
71791;BME280;59638;52.126;5.434;2023-04-28T06:47:04;101175.16;;;9.12;91.59
71791;BME280;59638;52.126;5.434;2023-04-28T06:49:31;101178.38;;;9.05;91.86
71791;BME280;59638;52.126;5.434;2023-04-28T06:51:57;101182.66;;;9.17;92.66
71791;BME280;59638;52.126;5.434;2023-04-28T06:54:24;101182.91;;;9.14;93.13
71791;BME280;59638;52.126;5.434;2023-04-28T06:56:50;101185.78;;;9.11;94.00
71791;BME280;59638;52.126;5.434;2023-04-28T06:59:16;101181.03;;;9.05;94.64
71791;BME280;59638;52.126;5.434;2023-04-28T07:01:43;101172.88;;;9.19;95.51
71791;BME280;59638;52.126;5.434;2023-04-28T07:04:09;101171.16;;;9.29;95.12
71791;BME280;59638;52.126;5.434;2023-04-28T07:06:36;101162.66;;;9.37;95.62
71791;BME280;59638;52.126;5.434;2023-04-28T07:09:03;101160.16;;;9.35;96.17
71791;BME280;59638;52.126;5.434;2023-04-28T07:11:29;101162.66;;;9.37;97.14
71791;BME280;59638;52.126;5.434;2023-04-28T07:13:58;101164.09;;;9.52;97.44
71791;BME280;59638;52.126;5.434;2023-04-28T07:16:25;101166.56;;;9.65;97.74
71791;BME280;59638;52.126;5.434;2023-04-28T07:18:51;101156.91;;;9.86;97.85
71791;BME280;59638;52.126;5.434;2023-04-28T07:21:18;101153.50;;;9.95;97.46
71791;BME280;59638;52.126;5.434;2023-04-28T07:23:45;101163.66;;;10.11;97.69
71791;BME280;59638;52.126;5.434;2023-04-28T07:26:11;101163.28;;;10.37;98.06
71791;BME280;59638;52.126;5.434;2023-04-28T07:28:43;101170.97;;;10.60;97.06
71791;BME280;59638;52.126;5.434;2023-04-28T07:31:09;101166.00;;;10.67;96.15
71791;BME280;59638;52.126;5.434;2023-04-28T07:33:35;101164.66;;;10.73;96.37
71791;BME280;59638;52.126;5.434;2023-04-28T07:36:02;101170.41;;;10.87;96.13
71791;BME280;59638;52.126;5.434;2023-04-28T07:38:28;101168.44;;;11.10;95.35
71791;BME280;59638;52.126;5.434;2023-04-28T07:40:55;101170.44;;;11.28;95.83
71791;BME280;59638;52.126;5.434;2023-04-28T07:43:22;101160.22;;;11.44;95.46
71791;BME280;59638;52.126;5.434;2023-04-28T07:45:48;101161.88;;;11.45;94.90
71791;BME280;59638;52.126;5.434;2023-04-28T07:48:15;101164.38;;;11.47;94.74
71791;BME280;59638;52.126;5.434;2023-04-28T07:50:42;101149.63;;;11.44;95.28
71791;BME280;59638;52.126;5.434;2023-04-28T07:53:08;101144.94;;;11.67;94.59
71791;BME280;59638;52.126;5.434;2023-04-28T07:55:34;101148.47;;;11.87;94.04
71791;BME280;59638;52.126;5.434;2023-04-28T07:58:01;101150.97;;;12.08;93.14
71791;BME280;59638;52.126;5.434;2023-04-28T08:00:28;101147.91;;;12.12;91.99
71791;BME280;59638;52.126;5.434;2023-04-28T08:02:55;101144.72;;;11.99;92.42
71791;BME280;59638;52.126;5.434;2023-04-28T08:05:23;101148.59;;;12.14;92.86
71791;BME280;59638;52.126;5.434;2023-04-28T08:07:50;101141.63;;;12.33;92.42
71791;BME280;59638;52.126;5.434;2023-04-28T08:10:16;101147.47;;;12.27;92.08
71791;BME280;59638;52.126;5.434;2023-04-28T08:12:43;101149.72;;;12.12;93.00
71791;BME280;59638;52.126;5.434;2023-04-28T08:15:11;101138.00;;;12.14;93.00
71791;BME280;59638;52.126;5.434;2023-04-28T08:17:37;101133.97;;;12.20;92.80
71791;BME280;59638;52.126;5.434;2023-04-28T08:20:04;101143.03;;;12.17;93.27
71791;BME280;59638;52.126;5.434;2023-04-28T08:22:32;101146.38;;;12.00;92.69
71791;BME280;59638;52.126;5.434;2023-04-28T08:24:58;101154.13;;;11.73;94.31
71791;BME280;59638;52.126;5.434;2023-04-28T08:27:24;101154.69;;;11.57;95.94
71791;BME280;59638;52.126;5.434;2023-04-28T08:29:51;101156.59;;;11.45;96.79
71791;BME280;59638;52.126;5.434;2023-04-28T08:32:18;101153.22;;;11.33;97.85
71791;BME280;59638;52.126;5.434;2023-04-28T08:34:44;101154.78;;;11.36;98.53
71791;BME280;59638;52.126;5.434;2023-04-28T08:37:10;101153.50;;;11.40;99.13
71791;BME280;59638;52.126;5.434;2023-04-28T08:39:37;101156.28;;;11.38;99.28
71791;BME280;59638;52.126;5.434;2023-04-28T08:42:04;101143.91;;;11.39;99.62
71791;BME280;59638;52.126;5.434;2023-04-28T08:44:36;101138.56;;;11.69;100.00
71791;BME280;59638;52.126;5.434;2023-04-28T08:47:12;101139.56;;;12.17;98.98
71791;BME280;59638;52.126;5.434;2023-04-28T08:49:40;101151.66;;;12.19;99.01
71791;BME280;59638;52.126;5.434;2023-04-28T08:52:11;101152.63;;;12.38;98.96
71791;BME280;59638;52.126;5.434;2023-04-28T08:54:38;101146.38;;;12.29;99.40
71791;BME280;59638;52.126;5.434;2023-04-28T08:57:09;101147.78;;;12.23;100.00
71791;BME280;59638;52.126;5.434;2023-04-28T08:59:38;101137.31;;;12.41;100.00
71791;BME280;59638;52.126;5.434;2023-04-28T09:02:07;101138.38;;;12.58;100.00
71791;BME280;59638;52.126;5.434;2023-04-28T09:04:33;101142.41;;;12.52;99.34
71791;BME280;59638;52.126;5.434;2023-04-28T09:07:00;101147.19;;;12.49;99.43
71791;BME280;59638;52.126;5.434;2023-04-28T09:09:28;101144.13;;;12.44;99.85
71791;BME280;59638;52.126;5.434;2023-04-28T09:12:00;101138.84;;;12.24;100.00
71791;BME280;59638;52.126;5.434;2023-04-28T09:14:28;101144.16;;;12.05;100.00
71791;BME280;59638;52.126;5.434;2023-04-28T09:16:55;101128.56;;;12.02;100.00
71791;BME280;59638;52.126;5.434;2023-04-28T09:19:22;101129.41;;;12.03;100.00
71791;BME280;59638;52.126;5.434;2023-04-28T09:21:53;101135.91;;;12.08;100.00
71791;BME280;59638;52.126;5.434;2023-04-28T09:24:28;101129.38;;;12.12;100.00
71791;BME280;59638;52.126;5.434;2023-04-28T09:26:55;101128.28;;;12.05;100.00
71791;BME280;59638;52.126;5.434;2023-04-28T09:29:21;101136.91;;;12.07;100.00
71791;BME280;59638;52.126;5.434;2023-04-28T09:31:48;101128.81;;;12.18;100.00
71791;BME280;59638;52.126;5.434;2023-04-28T09:34:14;101136.06;;;12.16;100.00
71791;BME280;59638;52.126;5.434;2023-04-28T09:36:41;101134.25;;;12.07;100.00
71791;BME280;59638;52.126;5.434;2023-04-28T09:39:08;101139.00;;;12.13;100.00
71791;BME280;59638;52.126;5.434;2023-04-28T09:41:38;101141.63;;;12.33;100.00
71791;BME280;59638;52.126;5.434;2023-04-28T09:44:16;101126.03;;;12.30;100.00
71791;BME280;59638;52.126;5.434;2023-04-28T09:46:45;101124.38;;;12.29;100.00
71791;BME280;59638;52.126;5.434;2023-04-28T09:49:12;101131.03;;;12.33;100.00
71791;BME280;59638;52.126;5.434;2023-04-28T09:51:39;101109.03;;;12.32;100.00
71791;BME280;59638;52.126;5.434;2023-04-28T09:54:06;101121.56;;;12.20;100.00
71791;BME280;59638;52.126;5.434;2023-04-28T09:56:34;101119.38;;;12.16;100.00
71791;BME280;59638;52.126;5.434;2023-04-28T09:59:06;101112.94;;;12.28;100.00
71791;BME280;59638;52.126;5.434;2023-04-28T10:01:36;101112.63;;;12.41;100.00
71791;BME280;59638;52.126;5.434;2023-04-28T10:04:07;101114.72;;;12.28;100.00
71791;BME280;59638;52.126;5.434;2023-04-28T10:06:34;101114.88;;;12.36;100.00
71791;BME280;59638;52.126;5.434;2023-04-28T10:09:02;101113.75;;;12.38;100.00
71791;BME280;59638;52.126;5.434;2023-04-28T10:11:28;101110.13;;;12.39;100.00
71791;BME280;59638;52.126;5.434;2023-04-28T10:13:55;101115.69;;;12.46;100.00
71791;BME280;59638;52.126;5.434;2023-04-28T10:16:22;101112.88;;;12.57;100.00
71791;BME280;59638;52.126;5.434;2023-04-28T10:18:50;101112.75;;;12.49;100.00
71791;BME280;59638;52.126;5.434;2023-04-28T10:21:17;101112.34;;;12.44;100.00
71791;BME280;59638;52.126;5.434;2023-04-28T10:23:58;101116.53;;;12.37;100.00
71791;BME280;59638;52.126;5.434;2023-04-28T10:29:15;101118.78;;;12.32;100.00
71791;BME280;59638;52.126;5.434;2023-04-28T10:32:14;101117.38;;;12.28;100.00
71791;BME280;59638;52.126;5.434;2023-04-28T10:34:40;101107.91;;;12.25;100.00
71791;BME280;59638;52.126;5.434;2023-04-28T10:37:07;101123.50;;;12.38;100.00
71791;BME280;59638;52.126;5.434;2023-04-28T10:39:33;101122.38;;;12.50;100.00
71791;BME280;59638;52.126;5.434;2023-04-28T10:42:00;101115.09;;;12.62;100.00
71791;BME280;59638;52.126;5.434;2023-04-28T10:47:04;101114.06;;;12.72;100.00
71791;BME280;59638;52.126;5.434;2023-04-28T10:50:10;101126.19;;;12.75;100.00
71791;BME280;59638;52.126;5.434;2023-04-28T10:55:34;101116.63;;;12.92;100.00
71791;BME280;59638;52.126;5.434;2023-04-28T11:00:41;101118.88;;;12.87;100.00
71791;BME280;59638;52.126;5.434;2023-04-28T11:03:08;101108.09;;;12.98;100.00
71791;BME280;59638;52.126;5.434;2023-04-28T11:05:35;101113.22;;;13.09;100.00
71791;BME280;59638;52.126;5.434;2023-04-28T11:08:31;101113.81;;;13.03;100.00
71791;BME280;59638;52.126;5.434;2023-04-28T11:13:38;101112.22;;;12.83;100.00
71791;BME280;59638;52.126;5.434;2023-04-28T11:16:08;101119.44;;;12.90;100.00
71791;BME280;59638;52.126;5.434;2023-04-28T11:18:48;101112.75;;;12.86;100.00
71791;BME280;59638;52.126;5.434;2023-04-28T11:21:22;101113.22;;;12.82;100.00
71791;BME280;59638;52.126;5.434;2023-04-28T11:23:49;101108.75;;;12.82;100.00
71791;BME280;59638;52.126;5.434;2023-04-28T11:26:15;101111.00;;;12.67;100.00
71791;BME280;59638;52.126;5.434;2023-04-28T11:28:46;101112.72;;;12.59;100.00
71791;BME280;59638;52.126;5.434;2023-04-28T11:31:14;101104.50;;;12.62;100.00
71791;BME280;59638;52.126;5.434;2023-04-28T11:33:46;101101.69;;;12.63;100.00
71791;BME280;59638;52.126;5.434;2023-04-28T11:36:28;101105.44;;;12.70;100.00
71791;BME280;59638;52.126;5.434;2023-04-28T11:38:57;101098.41;;;12.89;100.00
71791;BME280;59638;52.126;5.434;2023-04-28T11:41:24;101106.53;;;13.05;100.00
71791;BME280;59638;52.126;5.434;2023-04-28T11:43:52;101104.31;;;13.00;100.00
71791;BME280;59638;52.126;5.434;2023-04-28T11:46:21;101104.22;;;13.20;100.00
71791;BME280;59638;52.126;5.434;2023-04-28T11:48:58;101097.41;;;13.17;100.00
71791;BME280;59638;52.126;5.434;2023-04-28T11:51:33;101101.47;;;13.12;100.00
71791;BME280;59638;52.126;5.434;2023-04-28T11:54:01;101098.31;;;13.08;100.00
71791;BME280;59638;52.126;5.434;2023-04-28T11:56:29;101097.22;;;13.01;100.00
71791;BME280;59638;52.126;5.434;2023-04-28T11:59:03;101103.78;;;12.97;100.00
71791;BME280;59638;52.126;5.434;2023-04-28T12:01:31;101106.84;;;13.02;100.00
71791;BME280;59638;52.126;5.434;2023-04-28T12:03:57;101103.59;;;13.08;100.00
71791;BME280;59638;52.126;5.434;2023-04-28T12:06:24;101108.69;;;13.19;100.00
71791;BME280;59638;52.126;5.434;2023-04-28T12:08:51;101103.03;;;13.14;100.00
71791;BME280;59638;52.126;5.434;2023-04-28T12:11:18;101108.59;;;13.21;100.00
71791;BME280;59638;52.126;5.434;2023-04-28T12:14:04;101112.56;;;13.35;100.00
71791;BME280;59638;52.126;5.434;2023-04-28T12:16:43;101106.81;;;13.57;100.00
71791;BME280;59638;52.126;5.434;2023-04-28T12:19:10;101107.41;;;13.51;100.00
71791;BME280;59638;52.126;5.434;2023-04-28T12:21:38;101112.25;;;13.38;100.00
71791;BME280;59638;52.126;5.434;2023-04-28T12:24:18;101115.28;;;13.43;100.00
71791;BME280;59638;52.126;5.434;2023-04-28T12:26:47;101115.22;;;13.52;100.00
71791;BME280;59638;52.126;5.434;2023-04-28T12:29:36;101114.78;;;13.57;100.00
71791;BME280;59638;52.126;5.434;2023-04-28T12:32:05;101108.25;;;13.69;100.00
71791;BME280;59638;52.126;5.434;2023-04-28T12:34:31;101107.94;;;13.72;100.00
71791;BME280;59638;52.126;5.434;2023-04-28T12:37:00;101116.22;;;13.69;100.00
71791;BME280;59638;52.126;5.434;2023-04-28T12:39:27;101113.19;;;13.64;100.00
71791;BME280;59638;52.126;5.434;2023-04-28T12:41:54;101114.31;;;13.62;100.00
71791;BME280;59638;52.126;5.434;2023-04-28T12:44:20;101111.19;;;13.66;100.00
71791;BME280;59638;52.126;5.434;2023-04-28T12:46:50;101121.34;;;13.53;100.00
71791;BME280;59638;52.126;5.434;2023-04-28T12:49:17;101120.91;;;13.57;100.00
71791;BME280;59638;52.126;5.434;2023-04-28T12:51:43;101118.47;;;13.64;100.00
71791;BME280;59638;52.126;5.434;2023-04-28T12:54:10;101108.94;;;13.71;100.00
71791;BME280;59638;52.126;5.434;2023-04-28T12:56:36;101120.28;;;13.99;100.00
71791;BME280;59638;52.126;5.434;2023-04-28T12:59:03;101112.25;;;14.09;100.00
71791;BME280;59638;52.126;5.434;2023-04-28T13:01:29;101107.56;;;14.03;100.00
71791;BME280;59638;52.126;5.434;2023-04-28T13:03:56;101120.38;;;13.90;100.00
71791;BME280;59638;52.126;5.434;2023-04-28T13:06:23;101118.50;;;13.82;100.00
71791;BME280;59638;52.126;5.434;2023-04-28T13:08:49;101122.03;;;13.91;100.00